Time;durP1;ratioP1;P1;durP2;ratioP2;P2;SDS_P1;SDS_P2;PMS_P1;PMS_P2;Temp;Humidity;BMP_temperature;BMP_pressure;BME280_temperature;BME280_humidity;BME280_pressure;Samples;Min_cycle;Max_cycle;Signal;HPM_P1;HPM_P2
2023/04/16 00:00:02;;;;;;;13.25;9.90;;;;;;;8.76;100.00;99479.69;340525;29;1636;-80
2023/04/16 00:00:14;;;;;;;12.40;9.20;;;;;;;8.67;100.00;99489.44;340947;29;1934;-80
2023/04/16 00:00:27;;;;;;;9.85;7.90;;;;;;;8.75;100.00;99478.00;341146;29;1394;-79
2023/04/16 00:00:39;;;;;;;8.98;7.18;;;;;;;8.74;100.00;99476.28;341363;29;967;-79
2023/04/16 00:00:51;;;;;;;9.63;7.50;;;;;;;8.75;100.00;99485.78;341017;29;1132;-80
2023/04/16 00:01:03;;;;;;;10.63;7.88;;;;;;;8.75;100.00;99478.00;340720;29;1039;-80
2023/04/16 00:01:15;;;;;;;11.27;7.70;;;;;;;8.72;100.00;99483.25;341043;29;1164;-79
2023/04/16 00:01:27;;;;;;;11.52;7.90;;;;;;;8.72;100.00;99487.59;340978;29;1030;-79
2023/04/16 00:01:39;;;;;;;11.48;7.75;;;;;;;8.79;100.00;99478.75;341220;29;1314;-79
2023/04/16 00:01:51;;;;;;;10.57;7.57;;;;;;;8.83;100.00;99490.72;341112;29;1071;-79
2023/04/16 00:02:03;;;;;;;11.68;7.68;;;;;;;8.87;100.00;99478.53;339859;29;1107;-79
2023/04/16 00:02:15;;;;;;;12.52;7.68;;;;;;;8.91;100.00;99480.13;339779;29;1048;-79
2023/04/16 00:02:28;;;;;;;12.40;7.88;;;;;;;8.96;100.00;99480.88;339530;29;1048;-81
2023/04/16 00:02:40;;;;;;;10.25;7.60;;;;;;;8.99;100.00;99485.94;339682;29;1156;-80
2023/04/16 00:02:52;;;;;;;10.02;7.60;;;;;;;8.94;100.00;99482.66;340793;29;1104;-79
2023/04/16 00:03:05;;;;;;;9.95;7.57;;;;;;;8.92;100.00;99481.84;340695;28;1568;-80
2023/04/16 00:03:17;;;;;;;9.77;7.65;;;;;;;8.90;100.00;99478.47;340696;29;1418;-80
2023/04/16 00:03:29;;;;;;;10.40;7.82;;;;;;;8.90;100.00;99481.06;340497;29;1146;-80
2023/04/16 00:03:41;;;;;;;10.25;7.78;;;;;;;8.85;100.00;99477.72;340834;29;1185;-79
2023/04/16 00:03:54;;;;;;;9.90;7.63;;;;;;;8.86;100.00;99479.44;340467;29;1566;-81
2023/04/16 00:04:06;;;;;;;9.23;7.25;;;;;;;8.89;100.00;99480.19;341220;29;1068;-81
2023/04/16 00:04:19;;;;;;;10.13;7.57;;;;;;;8.87;100.00;99476.78;340975;29;1164;-79
2023/04/16 00:04:31;;;;;;;10.43;7.80;;;;;;;8.91;100.00;99485.31;340939;29;1823;-80
2023/04/16 00:04:43;;;;;;;10.02;7.88;;;;;;;8.85;100.00;99483.75;340852;29;1203;-79
2023/04/16 00:04:55;;;;;;;10.05;7.90;;;;;;;8.85;100.00;99478.56;340472;29;1669;-79
2023/04/16 00:05:07;;;;;;;10.48;7.80;;;;;;;8.86;100.00;99484.63;340816;29;1473;-80
2023/04/16 00:05:19;;;;;;;10.47;7.50;;;;;;;8.84;100.00;99481.22;340634;29;1878;-80
2023/04/16 00:05:31;;;;;;;11.13;7.40;;;;;;;8.85;100.00;99480.31;339713;29;1374;-81
2023/04/16 00:05:43;;;;;;;11.27;8.02;;;;;;;8.86;100.00;99479.44;339844;29;1036;-79
2023/04/16 00:05:55;;;;;;;12.13;8.55;;;;;;;8.84;100.00;99481.22;340057;29;1141;-80
2023/04/16 00:06:09;;;;;;;11.82;8.73;;;;;;;8.83;100.00;99480.34;340624;29;1796;-79
2023/04/16 00:06:22;;;;;;;10.93;8.07;;;;;;;8.67;100.00;99485.13;341328;28;1063;-80
2023/04/16 00:06:34;;;;;;;10.73;7.93;;;;;;;8.62;100.00;99480.97;340201;29;1187;-80
2023/04/16 00:06:46;;;;;;;11.32;7.90;;;;;;;8.62;100.00;99481.81;340316;29;1644;-80
2023/04/16 00:06:58;;;;;;;10.65;7.45;;;;;;;8.70;100.00;99479.84;341074;28;1291;-83
2023/04/16 00:07:10;;;;;;;10.13;7.20;;;;;;;8.65;100.00;99476.53;340955;29;1228;-81
2023/04/16 00:07:22;;;;;;;9.85;7.10;;;;;;;8.72;100.00;99478.06;341277;29;1119;-81
2023/04/16 00:07:34;;;;;;;9.52;7.00;;;;;;;8.80;100.00;99476.09;341164;29;1310;-80
2023/04/16 00:07:46;;;;;;;9.90;6.97;;;;;;;8.74;100.00;99481.47;339689;28;1234;-80
2023/04/16 00:07:58;;;;;;;10.18;7.20;;;;;;;8.74;100.00;99486.66;341174;29;1290;-81
2023/04/16 00:08:10;;;;;;;10.70;7.57;;;;;;;8.62;100.00;99481.81;340866;29;1337;-80
2023/04/16 00:08:25;;;;;;;10.25;7.50;;;;;;;8.62;100.00;99475.78;341099;29;1051;-79
2023/04/16 00:08:37;;;;;;;9.50;7.07;;;;;;;8.69;100.00;99473.00;340979;29;1849;-79
2023/04/16 00:08:50;;;;;;;9.43;6.95;;;;;;;8.65;100.00;99476.53;340992;29;1235;-83
2023/04/16 00:09:02;;;;;;;9.98;7.00;;;;;;;8.66;100.00;99475.66;341311;29;1005;-82
2023/04/16 00:09:14;;;;;;;11.20;8.05;;;;;;;8.62;100.00;99481.81;340659;29;1247;-80
2023/04/16 00:09:26;;;;;;;10.82;8.30;;;;;;;8.62;100.00;99475.78;341146;29;1334;-80
2023/04/16 00:09:38;;;;;;;9.75;7.78;;;;;;;8.62;100.00;99481.81;340971;29;1798;-80
2023/04/16 00:09:50;;;;;;;9.82;7.80;;;;;;;8.61;100.00;99480.09;340878;29;1357;-80
2023/04/16 00:10:02;;;;;;;10.55;8.43;;;;;;;8.59;100.00;99481.88;341064;28;1012;-80
2023/04/16 00:10:14;;;;;;;10.63;8.65;;;;;;;8.59;100.00;99481.88;341408;28;1230;-79
2023/04/16 00:10:26;;;;;;;10.73;8.80;;;;;;;8.63;100.00;99483.50;341051;28;1185;-79
2023/04/16 00:10:38;;;;;;;11.02;8.40;;;;;;;8.60;100.00;99478.41;341293;28;1637;-80
2023/04/16 00:10:52;;;;;;;11.35;7.88;;;;;;;8.59;100.00;99487.06;340598;29;1321;-79
2023/04/16 00:11:04;;;;;;;12.10;7.70;;;;;;;8.49;100.00;99480.44;341209;28;1310;-80
2023/04/16 00:11:16;;;;;;;13.43;8.52;;;;;;;8.53;100.00;99482.03;341209;28;951;-80
2023/04/16 00:11:28;;;;;;;13.27;8.60;;;;;;;8.56;100.00;99482.81;341165;28;1257;-80
2023/04/16 00:11:40;;;;;;;12.40;8.85;;;;;;;8.56;100.00;99481.97;341259;28;1110;-79
2023/04/16 00:11:52;;;;;;;11.80;8.93;;;;;;;8.58;100.00;99485.38;339891;29;1851;-80
2023/04/16 00:12:05;;;;;;;12.63;9.23;;;;;;;8.60;100.00;99483.59;341055;28;1239;-79
2023/04/16 00:12:17;;;;;;;12.65;8.77;;;;;;;8.56;100.00;99487.16;341306;28;1063;-79
2023/04/16 00:12:29;;;;;;;12.18;8.43;;;;;;;8.58;100.00;99480.19;341472;28;1079;-80
2023/04/16 00:12:41;;;;;;;11.20;8.00;;;;;;;8.62;100.00;99484.41;340918;28;1731;-80
2023/04/16 00:12:53;;;;;;;11.13;8.00;;;;;;;8.62;100.00;99481.81;341895;28;1510;-80
2023/04/16 00:13:05;;;;;;;10.30;7.63;;;;;;;8.63;100.00;99488.69;342047;28;1313;-81
2023/04/16 00:13:17;;;;;;;10.35;7.50;;;;;;;8.67;100.00;99485.13;342339;28;1170;-80
2023/04/16 00:13:29;;;;;;;10.32;7.80;;;;;;;8.64;100.00;99480.03;342225;28;2049;-80
2023/04/16 00:13:41;;;;;;;11.02;8.30;;;;;;;8.64;100.00;99480.03;342465;28;1071;-79
2023/04/16 00:13:53;;;;;;;11.65;8.50;;;;;;;8.67;100.00;99479.97;341221;28;1548;-80
2023/04/16 00:14:05;;;;;;;11.25;7.93;;;;;;;8.66;100.00;99475.66;340834;29;1081;-81
2023/04/16 00:14:17;;;;;;;10.70;7.40;;;;;;;8.64;100.00;99487.78;340117;29;1056;-80
2023/04/16 00:14:29;;;;;;;10.00;7.20;;;;;;;8.62;100.00;99481.81;338716;29;1247;-80
2023/04/16 00:14:42;;;;;;;9.60;7.10;;;;;;;8.68;100.00;99486.81;339859;29;1330;-80
2023/04/16 00:14:54;;;;;;;9.45;7.10;;;;;;;8.66;100.00;99483.41;338432;29;1141;-81
2023/04/16 00:15:06;;;;;;;9.27;6.90;;;;;;;8.70;100.00;99482.44;338550;29;1202;-79
2023/04/16 00:15:18;;;;;;;9.85;7.22;;;;;;;8.70;100.00;99479.84;338662;29;1342;-80
2023/04/16 00:15:30;;;;;;;9.98;7.63;;;;;;;8.64;100.00;99480.03;338673;29;1105;-80
2023/04/16 00:15:42;;;;;;;10.82;8.40;;;;;;;8.65;100.00;99480.88;338640;29;1108;-81
2023/04/16 00:15:54;;;;;;;10.55;8.13;;;;;;;8.62;100.00;99481.81;339553;29;1067;-80
2023/04/16 00:16:06;;;;;;;9.95;7.55;;;;;;;8.64;100.00;99480.03;339712;29;1333;-82
2023/04/16 00:16:18;;;;;;;10.43;7.60;;;;;;;8.62;100.00;99480.97;338974;29;1461;-79
2023/04/16 00:16:30;;;;;;;10.55;7.65;;;;;;;8.65;100.00;99481.72;339957;29;1027;-80
2023/04/16 00:16:42;;;;;;;10.90;7.70;;;;;;;8.68;100.00;99476.47;340582;29;1672;-79
2023/04/16 00:16:54;;;;;;;10.45;7.35;;;;;;;8.66;100.00;99475.66;341461;28;979;-80
2023/04/16 00:17:06;;;;;;;10.68;7.45;;;;;;;8.66;100.00;99487.75;339805;28;1106;-79
2023/04/16 00:17:19;;;;;;;10.55;8.10;;;;;;;8.60;100.00;99483.59;341372;28;1127;-79
2023/04/16 00:17:31;;;;;;;11.73;8.25;;;;;;;8.61;100.00;99482.69;341071;28;1201;-79
2023/04/16 00:17:43;;;;;;;12.45;8.10;;;;;;;8.54;100.00;99484.59;341187;28;1735;-79
2023/04/16 00:17:55;;;;;;;11.05;7.85;;;;;;;8.58;100.00;99482.78;340765;29;1194;-79
2023/04/16 00:18:07;;;;;;;10.38;8.00;;;;;;;8.49;100.00;99480.44;340698;29;1898;-79
2023/04/16 00:18:20;;;;;;;10.65;8.10;;;;;;;8.44;100.00;99487.50;339989;29;1202;-79
2023/04/16 00:18:32;;;;;;;10.48;8.48;;;;;;;8.39;100.00;99483.25;339821;29;1303;-79
2023/04/16 00:18:44;;;;;;;10.10;8.43;;;;;;;8.48;100.00;99484.78;339800;29;1095;-82
2023/04/16 00:18:56;;;;;;;9.25;7.85;;;;;;;8.54;100.00;99483.75;341020;29;1036;-79
2023/04/16 00:19:08;;;;;;;9.05;7.30;;;;;;;8.59;100.00;99487.06;340837;29;1052;-82
2023/04/16 00:19:21;;;;;;;9.73;7.53;;;;;;;8.63;100.00;99485.25;338392;29;1099;-79
2023/04/16 00:19:33;;;;;;;10.43;7.70;;;;;;;8.65;100.00;99481.72;338375;29;1596;-79
2023/04/16 00:19:44;;;;;;;10.82;7.53;;;;;;;8.67;100.00;99487.72;338650;29;1150;-79
2023/04/16 00:19:56;;;;;;;10.32;7.10;;;;;;;8.68;100.00;99486.81;338543;29;1036;-79
2023/04/16 00:20:09;;;;;;;10.60;7.40;;;;;;;8.64;100.00;99482.63;338143;29;1055;-80
2023/04/16 00:20:21;;;;;;;10.18;7.95;;;;;;;8.51;100.00;99479.53;337014;29;1064;-79
2023/04/16 00:20:33;;;;;;;10.68;8.50;;;;;;;8.49;100.00;99485.63;337061;29;1767;-79
2023/04/16 00:20:45;;;;;;;11.52;8.73;;;;;;;8.50;100.00;99484.75;338248;29;1353;-79
2023/04/16 00:20:58;;;;;;;11.85;8.73;;;;;;;8.38;100.00;99478.94;335797;29;1581;-79
2023/04/16 00:21:10;;;;;;;11.43;8.80;;;;;;;8.39;100.00;99483.25;337272;29;1271;-79
2023/04/16 00:21:22;;;;;;;11.57;8.82;;;;;;;8.34;100.00;99482.50;337716;29;2022;-80
2023/04/16 00:21:34;;;;;;;11.90;9.07;;;;;;;8.33;100.00;99480.81;338458;29;1192;-79
2023/04/16 00:21:46;;;;;;;11.85;8.90;;;;;;;8.35;100.00;99484.22;338306;29;1301;-80
2023/04/16 00:21:58;;;;;;;11.25;8.48;;;;;;;8.43;100.00;99480.59;337834;29;1593;-79
2023/04/16 00:22:10;;;;;;;10.30;7.82;;;;;;;8.36;100.00;99485.91;338710;29;1262;-79
2023/04/16 00:22:22;;;;;;;10.05;7.72;;;;;;;8.36;100.00;99491.09;338542;29;1113;-79
2023/04/16 00:22:34;;;;;;;10.60;8.23;;;;;;;8.44;100.00;99483.16;337099;29;1070;-80
2023/04/16 00:22:46;;;;;;;9.95;7.72;;;;;;;8.50;100.00;99487.31;337008;29;1209;-79
2023/04/16 00:22:58;;;;;;;9.80;7.57;;;;;;;8.49;100.00;99485.63;338078;29;1701;-79
2023/04/16 00:23:09;;;;;;;9.50;7.63;;;;;;;8.42;100.00;99484.09;337482;29;1202;-79
2023/04/16 00:23:24;;;;;;;9.18;7.38;;;;;;;8.46;100.00;99480.53;337607;29;1108;-80
2023/04/16 00:23:36;;;;;;;8.90;7.03;;;;;;;8.50;100.00;99482.16;338862;29;821;-80
2023/04/16 00:23:48;;;;;;;9.85;7.13;;;;;;;8.54;100.00;99488.94;340082;29;1110;-79
2023/04/16 00:24:00;;;;;;;10.02;7.75;;;;;;;8.50;100.00;99487.31;341093;29;1733;-79
2023/04/16 00:24:12;;;;;;;10.65;8.15;;;;;;;8.55;100.00;99480.25;339809;29;1109;-80
2023/04/16 00:24:24;;;;;;;11.05;8.13;;;;;;;8.53;100.00;99490.69;339487;29;1345;-79
2023/04/16 00:24:36;;;;;;;10.13;7.50;;;;;;;8.56;100.00;99482.81;339672;29;1733;-80
2023/04/16 00:24:48;;;;;;;9.15;7.32;;;;;;;8.58;100.00;99477.59;340761;29;1303;-80
2023/04/16 00:25:00;;;;;;;9.35;7.22;;;;;;;8.63;100.00;99480.91;339730;29;1737;-80
2023/04/16 00:25:13;;;;;;;10.23;7.40;;;;;;;8.67;100.00;99484.25;339636;29;1306;-81
2023/04/16 00:25:25;;;;;;;10.75;7.57;;;;;;;8.69;100.00;99483.34;338482;29;1084;-80
2023/04/16 00:25:37;;;;;;;11.18;7.63;;;;;;;8.64;100.00;99482.63;338300;29;1093;-80
2023/04/16 00:25:49;;;;;;;10.32;7.75;;;;;;;8.65;100.00;99486.88;339013;29;1202;-79
2023/04/16 00:26:01;;;;;;;11.10;8.18;;;;;;;8.64;100.00;99487.78;339571;29;1488;-81
2023/04/16 00:26:13;;;;;;;10.95;8.18;;;;;;;8.63;100.00;99488.69;339665;29;1677;-79
2023/04/16 00:26:24;;;;;;;10.23;7.50;;;;;;;8.66;100.00;99482.59;341088;29;1279;-80
2023/04/16 00:26:36;;;;;;;10.45;6.95;;;;;;;8.68;100.00;99486.81;341001;29;1064;-80
2023/04/16 00:26:48;;;;;;;9.93;6.93;;;;;;;8.71;100.00;99491.94;340657;29;1842;-81
2023/04/16 00:27:00;;;;;;;10.40;7.22;;;;;;;8.72;100.00;99488.44;340720;29;1192;-80
2023/04/16 00:27:12;;;;;;;9.57;7.47;;;;;;;8.74;100.00;99485.81;340978;29;1596;-80
2023/04/16 00:27:25;;;;;;;9.38;7.35;;;;;;;8.68;100.00;99485.97;340888;29;1253;-80
2023/04/16 00:27:37;;;;;;;10.00;7.70;;;;;;;8.58;100.00;99477.59;340122;29;1208;-79
2023/04/16 00:27:48;;;;;;;11.20;8.65;;;;;;;8.57;100.00;99483.66;341022;28;1331;-80
2023/04/16 00:28:00;;;;;;;11.45;9.23;;;;;;;8.49;100.00;99483.03;341152;29;1342;-80
2023/04/16 00:28:12;;;;;;;12.85;9.60;;;;;;;8.38;100.00;99484.13;341420;29;873;-79
2023/04/16 00:28:26;;;;;;;12.93;9.60;;;;;;;8.46;100.00;99485.72;340933;29;1068;-80
2023/04/16 00:28:42;;;;;;;13.02;9.80;;;;;;;8.51;100.00;99489.00;340790;29;1563;-82
2023/04/16 00:28:54;;;;;;;12.95;9.65;;;;;;;8.48;100.00;99478.75;340094;29;1027;-79
2023/04/16 00:29:06;;;;;;;10.98;8.45;;;;;;;8.49;100.00;99485.63;339847;29;1669;-79
2023/04/16 00:29:19;;;;;;;10.35;7.85;;;;;;;8.42;100.00;99487.53;340670;29;1156;-80
2023/04/16 00:29:32;;;;;;;10.23;7.65;;;;;;;8.49;100.00;99486.47;341278;29;1106;-80
2023/04/16 00:29:44;;;;;;;10.02;7.38;;;;;;;8.54;100.00;99478.59;341172;29;1212;-82
2023/04/16 00:29:56;;;;;;;9.68;7.05;;;;;;;8.55;100.00;99485.44;340994;28;1665;-81
2023/04/16 00:30:08;;;;;;;10.25;7.13;;;;;;;8.49;100.00;99485.63;339436;29;1075;-79
2023/04/16 00:30:21;;;;;;;10.82;7.82;;;;;;;8.46;100.00;99477.94;339895;29;1206;-80
2023/04/16 00:30:34;;;;;;;10.68;8.50;;;;;;;8.43;100.00;99472.81;339750;29;1099;-79
2023/04/16 00:30:46;;;;;;;11.80;9.88;;;;;;;8.49;100.00;99480.44;340297;29;1221;-81
2023/04/16 00:31:00;;;;;;;12.45;10.45;;;;;;;8.49;100.00;99480.44;339976;29;1247;-80
2023/04/16 00:31:12;;;;;;;11.43;9.77;;;;;;;8.39;100.00;99474.59;340255;29;1633;-79
2023/04/16 00:31:31;;;;;;;10.55;8.73;;;;;;;8.52;100.00;99480.38;339681;29;1084;-80
2023/04/16 00:31:43;;;;;;;9.95;7.72;;;;;;;8.58;100.00;99480.19;339859;29;1038;-80
2023/04/16 00:31:55;;;;;;;9.90;7.50;;;;;;;8.60;100.00;99478.41;339966;29;1598;-79
2023/04/16 00:32:07;;;;;;;9.77;7.40;;;;;;;8.65;100.00;99484.31;341037;29;1124;-80
2023/04/16 00:32:19;;;;;;;9.63;7.25;;;;;;;8.48;100.00;99479.59;341229;28;1310;-79
2023/04/16 00:32:31;;;;;;;8.85;6.80;;;;;;;8.61;100.00;99480.09;341304;28;1266;-79
2023/04/16 00:32:43;;;;;;;9.13;6.75;;;;;;;8.68;100.00;99480.81;341561;28;1237;-80
2023/04/16 00:32:55;;;;;;;9.98;7.03;;;;;;;8.71;100.00;99475.50;340831;29;1591;-79
2023/04/16 00:33:07;;;;;;;9.57;7.10;;;;;;;8.70;100.00;99481.59;339833;29;1286;-80
2023/04/16 00:33:19;;;;;;;9.80;7.65;;;;;;;8.66;100.00;99478.25;340256;29;1913;-79
2023/04/16 00:33:31;;;;;;;10.63;8.35;;;;;;;8.60;100.00;99484.44;339718;29;1850;-79
2023/04/16 00:33:43;;;;;;;11.82;8.88;;;;;;;8.61;100.00;99480.09;339857;29;1039;-79
2023/04/16 00:33:55;;;;;;;11.38;8.63;;;;;;;8.65;100.00;99481.72;341906;28;1520;-79
2023/04/16 00:34:07;;;;;;;10.07;7.63;;;;;;;8.64;100.00;99480.03;342065;28;1201;-79
2023/04/16 00:34:19;;;;;;;9.52;6.97;;;;;;;8.62;100.00;99484.41;340729;28;1222;-80
2023/04/16 00:34:31;;;;;;;9.88;7.18;;;;;;;8.62;100.00;99481.81;339740;29;1072;-79
2023/04/16 00:34:43;;;;;;;10.15;7.65;;;;;;;8.64;100.00;99480.03;340624;29;1244;-84
2023/04/16 00:34:55;;;;;;;10.25;7.47;;;;;;;8.68;100.00;99483.38;341390;28;1554;-79
2023/04/16 00:35:07;;;;;;;10.00;6.93;;;;;;;8.66;100.00;99478.25;341301;28;1059;-79
2023/04/16 00:35:19;;;;;;;9.70;6.72;;;;;;;8.62;100.00;99481.81;341080;28;1107;-81
2023/04/16 00:35:31;;;;;;;11.38;6.88;;;;;;;8.62;100.00;99480.97;340029;29;1902;-79
2023/04/16 00:35:47;;;;;;;12.27;7.22;;;;;;;8.66;100.00;99483.41;340221;29;1290;-79
2023/04/16 00:35:59;;;;;;;10.02;7.55;;;;;;;8.64;100.00;99482.63;340305;28;1275;-79
2023/04/16 00:36:10;;;;;;;9.73;7.90;;;;;;;8.64;100.00;99490.38;339505;29;1343;-80
2023/04/16 00:36:24;;;;;;;9.98;7.88;;;;;;;8.59;100.00;99484.47;339563;29;1794;-80
2023/04/16 00:36:36;;;;;;;9.68;7.30;;;;;;;8.60;100.00;99478.41;338364;29;1036;-80
2023/04/16 00:36:48;;;;;;;9.70;7.20;;;;;;;8.59;100.00;99487.94;339076;29;1225;-80
2023/04/16 00:37:00;;;;;;;9.57;7.10;;;;;;;8.59;100.00;99481.88;339151;29;1130;-81
2023/04/16 00:37:12;;;;;;;9.85;7.43;;;;;;;8.61;100.00;99480.09;339501;29;1450;-81
2023/04/16 00:37:24;;;;;;;10.02;7.50;;;;;;;8.61;100.00;99480.09;338283;29;1211;-80
2023/04/16 00:37:36;;;;;;;10.15;7.43;;;;;;;8.51;100.00;99482.13;338252;29;1016;-80
2023/04/16 00:37:48;;;;;;;10.32;7.22;;;;;;;8.50;100.00;99482.16;338825;29;1098;-81
2023/04/16 00:38:00;;;;;;;10.27;7.25;;;;;;;8.55;100.00;99480.25;338370;29;1017;-79
2023/04/16 00:38:12;;;;;;;10.32;7.20;;;;;;;8.62;100.00;99484.41;337137;29;1329;-79
2023/04/16 00:38:28;;;;;;;10.38;7.13;;;;;;;8.66;100.00;99483.41;336829;29;1021;-80
2023/04/16 00:38:40;;;;;;;10.20;7.45;;;;;;;8.66;100.00;99487.75;336374;29;1564;-80
2023/04/16 00:38:53;;;;;;;9.68;7.22;;;;;;;8.72;100.00;99493.63;336626;29;1159;-80
2023/04/16 00:39:05;;;;;;;9.88;7.53;;;;;;;8.57;100.00;99483.66;336788;29;1053;-79
2023/04/16 00:39:17;;;;;;;10.95;8.18;;;;;;;8.55;100.00;99490.63;336605;29;1105;-79
2023/04/16 00:39:29;;;;;;;12.70;9.85;;;;;;;8.58;100.00;99491.41;337148;29;1101;-79
2023/04/16 00:39:41;;;;;;;12.63;9.73;;;;;;;8.57;100.00;99488.84;337499;29;1699;-79
2023/04/16 00:39:53;;;;;;;11.63;8.63;;;;;;;8.60;100.00;99483.59;338432;29;1087;-83
2023/04/16 00:40:06;;;;;;;10.63;7.93;;;;;;;8.64;100.00;99484.38;339275;29;1070;-79
2023/04/16 00:40:18;;;;;;;11.10;8.10;;;;;;;8.62;100.00;99488.75;339359;29;1766;-80
2023/04/16 00:40:30;;;;;;;11.57;8.60;;;;;;;8.61;100.00;99485.28;340651;29;1095;-79
2023/04/16 00:40:42;;;;;;;12.45;9.15;;;;;;;8.64;100.00;99490.38;341190;29;1116;-79
2023/04/16 00:40:56;;;;;;;12.02;9.18;;;;;;;8.64;100.00;99485.22;340687;29;1445;-79
2023/04/16 00:41:08;;;;;;;10.88;8.13;;;;;;;8.69;100.00;99488.53;341046;29;1468;-81
2023/04/16 00:41:21;;;;;;;11.35;7.97;;;;;;;8.60;100.00;99492.22;340865;29;1395;-80
2023/04/16 00:41:33;;;;;;;10.73;7.82;;;;;;;8.63;100.00;99488.69;340825;29;1516;-79
2023/04/16 00:41:45;;;;;;;10.65;7.85;;;;;;;8.63;100.00;99480.91;341039;29;1141;-79
2023/04/16 00:41:57;;;;;;;10.05;7.35;;;;;;;8.68;100.00;99486.81;341070;28;1739;-79
2023/04/16 00:42:10;;;;;;;9.55;6.80;;;;;;;8.73;100.00;99484.09;340351;29;1068;-79
2023/04/16 00:42:22;;;;;;;9.63;6.78;;;;;;;8.72;100.00;99487.59;341344;28;1153;-79
2023/04/16 00:42:35;;;;;;;10.35;6.90;;;;;;;8.64;100.00;99485.22;341444;28;1141;-79
2023/04/16 00:42:47;;;;;;;10.90;7.45;;;;;;;8.62;100.00;99487.00;341112;29;1225;-79
2023/04/16 00:42:59;;;;;;;11.82;8.05;;;;;;;8.60;100.00;99488.78;341138;29;1082;-79
2023/04/16 00:43:20;;;;;;;11.00;7.78;;;;;;;8.63;100.00;99493.84;341221;29;1223;-79
2023/04/16 00:43:32;;;;;;;9.73;6.90;;;;;;;8.60;100.00;99484.44;339471;29;1750;-83
2023/04/16 00:43:44;;;;;;;9.95;6.88;;;;;;;8.66;100.00;99486.00;339323;29;1058;-82
2023/04/16 00:43:56;;;;;;;9.88;6.80;;;;;;;8.63;100.00;99486.09;338253;29;1918;-80
2023/04/16 00:44:09;;;;;;;11.13;7.28;;;;;;;8.60;100.00;99484.44;338392;29;1278;-81
2023/04/16 00:44:20;;;;;;;11.55;8.23;;;;;;;8.52;100.00;99490.72;338662;29;1178;-80
2023/04/16 00:44:34;;;;;;;11.10;8.52;;;;;;;8.58;100.00;99487.97;338576;29;1077;-81
2023/04/16 00:44:46;;;;;;;10.98;8.63;;;;;;;8.44;100.00;99483.16;338552;29;1233;-81
2023/04/16 00:44:58;;;;;;;11.35;8.88;;;;;;;8.54;100.00;99487.19;339619;29;2053;-82
2023/04/16 00:45:10;;;;;;;10.68;8.65;;;;;;;8.49;100.00;99481.31;340107;29;774;-80
2023/04/16 00:45:22;;;;;;;12.07;8.80;;;;;;;8.53;100.00;99497.59;339712;29;1079;-81
2023/04/16 00:45:35;;;;;;;11.85;8.82;;;;;;;8.57;100.00;99488.84;340382;29;1142;-81
2023/04/16 00:45:47;;;;;;;10.55;7.88;;;;;;;8.58;100.00;99491.41;340935;29;1669;-80
2023/04/16 00:45:59;;;;;;;10.10;7.10;;;;;;;8.60;100.00;99479.25;341108;29;1119;-79
2023/04/16 00:46:11;;;;;;;9.77;6.95;;;;;;;8.68;100.00;99484.22;340907;28;1465;-79
2023/04/16 00:46:24;;;;;;;9.30;6.77;;;;;;;8.70;100.00;99489.38;341309;28;1060;-80
2023/04/16 00:46:37;;;;;;;9.52;6.95;;;;;;;8.68;100.00;99486.81;341437;28;1175;-80
2023/04/16 00:46:49;;;;;;;10.18;7.57;;;;;;;8.64;100.00;99490.38;340805;28;1343;-79
2023/04/16 00:47:02;;;;;;;10.85;8.02;;;;;;;8.59;100.00;99480.16;340784;28;1047;-79
2023/04/16 00:47:14;;;;;;;10.05;7.63;;;;;;;8.66;100.00;99483.41;341327;28;1189;-80
2023/04/16 00:47:26;;;;;;;9.70;7.28;;;;;;;8.69;100.00;99488.53;342343;28;1208;-81
2023/04/16 00:47:39;;;;;;;8.90;6.70;;;;;;;8.72;100.00;99485.00;342400;28;1340;-82
2023/04/16 00:47:51;;;;;;;9.68;6.70;;;;;;;8.74;100.00;99485.81;342142;28;1473;-80
2023/04/16 00:48:04;;;;;;;9.20;6.45;;;;;;;8.74;100.00;99488.41;342331;28;1059;-79
2023/04/16 00:48:16;;;;;;;8.07;6.50;;;;;;;8.77;100.00;99490.88;341273;28;1091;-79
2023/04/16 00:48:30;;;;;;;8.88;7.03;;;;;;;8.73;100.00;99490.16;340900;29;1067;-79
2023/04/16 00:48:43;;;;;;;9.45;7.30;;;;;;;8.69;100.00;99493.72;341888;28;1528;-80
2023/04/16 00:48:56;;;;;;;9.73;7.45;;;;;;;8.67;100.00;99492.91;342155;28;1276;-79
2023/04/16 00:49:08;;;;;;;9.77;7.78;;;;;;;8.58;100.00;99490.56;342228;28;1088;-81
2023/04/16 00:49:21;;;;;;;10.15;7.93;;;;;;;8.53;100.00;99488.09;340987;28;1203;-80
2023/04/16 00:49:33;;;;;;;11.10;8.35;;;;;;;8.48;100.00;99487.34;339771;29;1313;-80
2023/04/16 00:49:45;;;;;;;12.82;8.43;;;;;;;8.52;100.00;99488.97;340204;29;1236;-80
2023/04/16 00:49:57;;;;;;;12.73;8.23;;;;;;;8.46;100.00;99480.53;341089;29;1064;-80
2023/04/16 00:50:10;;;;;;;11.52;7.88;;;;;;;8.48;100.00;99487.34;340857;29;1205;-80
2023/04/16 00:50:22;;;;;;;9.88;7.30;;;;;;;8.51;100.00;99486.41;339604;29;1599;-80
2023/04/16 00:50:34;;;;;;;9.80;7.00;;;;;;;8.54;100.00;99478.59;339751;29;1037;-81
2023/04/16 00:50:47;;;;;;;10.63;7.10;;;;;;;8.54;100.00;99488.94;339339;29;1315;-80
2023/04/16 00:51:00;;;;;;;11.07;7.30;;;;;;;8.58;100.00;99490.56;336901;29;1045;-79
2023/04/16 00:51:12;;;;;;;10.50;7.35;;;;;;;8.63;100.00;99491.25;336495;29;1394;-79
2023/04/16 00:51:25;;;;;;;9.95;7.13;;;;;;;8.63;100.00;99486.09;335748;29;1864;-80
2023/04/16 00:51:37;;;;;;;9.15;6.85;;;;;;;8.64;100.00;99489.53;337766;29;1299;-79
2023/04/16 00:51:49;;;;;;;11.02;6.88;;;;;;;8.65;100.00;99486.88;338868;29;1104;-79
2023/04/16 00:52:02;;;;;;;11.10;6.85;;;;;;;8.65;100.00;99486.88;338619;29;1087;-79
2023/04/16 00:52:14;;;;;;;9.27;6.82;;;;;;;8.67;100.00;99495.50;338624;29;1326;-79
2023/04/16 00:52:27;;;;;;;9.68;7.50;;;;;;;8.65;100.00;99486.88;338349;29;1423;-79
2023/04/16 00:52:39;;;;;;;10.13;7.65;;;;;;;8.63;100.00;99493.84;338502;29;1209;-79
2023/04/16 00:52:55;;;;;;;9.40;7.30;;;;;;;8.66;100.00;99488.59;339829;29;1122;-81
2023/04/16 00:53:07;;;;;;;8.65;6.85;;;;;;;8.55;100.00;99491.50;339203;29;2006;-75
2023/04/16 00:53:19;;;;;;;9.52;7.07;;;;;;;8.51;100.00;99489.88;340638;29;1325;-75
2023/04/16 00:53:33;;;;;;;9.80;7.22;;;;;;;8.47;100.00;99484.81;340730;29;1641;-75
2023/04/16 00:53:45;;;;;;;10.60;7.43;;;;;;;8.50;100.00;99485.56;339606;29;1768;-75
2023/04/16 00:53:57;;;;;;;10.13;7.28;;;;;;;8.53;100.00;99492.41;339920;29;1027;-75
2023/04/16 00:54:09;;;;;;;9.90;7.38;;;;;;;8.58;100.00;99486.22;339685;29;1541;-75
2023/04/16 00:54:22;;;;;;;9.73;7.07;;;;;;;8.64;100.00;99485.22;339003;29;1768;-75
2023/04/16 00:54:34;;;;;;;8.82;6.53;;;;;;;8.67;100.00;99490.31;340730;29;1044;-75
2023/04/16 00:54:47;;;;;;;9.02;6.88;;;;;;;8.64;100.00;99482.63;340493;29;1825;-75
2023/04/16 00:54:59;;;;;;;9.93;7.70;;;;;;;8.40;100.00;99481.50;341286;29;936;-75
2023/04/16 00:55:12;;;;;;;11.10;8.80;;;;;;;8.43;100.00;99490.94;340460;29;1477;-75
2023/04/16 00:55:24;;;;;;;11.95;8.82;;;;;;;8.48;100.00;99484.78;340982;29;1039;-75
2023/04/16 00:55:36;;;;;;;11.32;8.23;;;;;;;8.52;100.00;99493.31;340245;29;1845;-75
2023/04/16 00:55:48;;;;;;;10.90;7.20;;;;;;;8.49;100.00;99493.38;340640;29;1743;-75
2023/04/16 00:56:05;;;;;;;10.02;7.10;;;;;;;8.50;100.00;99482.16;340965;29;1068;-75
2023/04/16 00:56:17;;;;;;;9.02;6.90;;;;;;;8.56;100.00;99487.16;341266;28;1027;-75
2023/04/16 00:56:30;;;;;;;9.07;6.75;;;;;;;8.60;100.00;99491.38;341306;28;1084;-75
2023/04/16 00:56:43;;;;;;;9.57;6.82;;;;;;;8.62;100.00;99484.41;340416;28;2100;-75
2023/04/16 00:56:55;;;;;;;10.23;6.82;;;;;;;8.63;100.00;99487.84;341307;28;1237;-75
2023/04/16 00:57:08;;;;;;;10.10;6.88;;;;;;;8.52;100.00;99493.31;340901;28;1107;-75
2023/04/16 00:57:22;;;;;;;10.32;7.07;;;;;;;8.51;100.00;99489.88;340938;28;1902;-75
2023/04/16 00:57:34;;;;;;;9.83;6.97;;;;;;;8.49;100.00;99493.38;341220;28;1754;-75
2023/04/16 00:57:46;;;;;;;11.00;7.15;;;;;;;8.44;100.00;99487.50;339684;29;1924;-75
2023/04/16 00:57:58;;;;;;;11.77;7.25;;;;;;;8.49;100.00;99486.47;340937;29;2341;-75
2023/04/16 00:58:10;;;;;;;11.57;7.20;;;;;;;8.50;100.00;99489.91;340649;29;1016;-75
2023/04/16 00:58:22;;;;;;;9.93;7.05;;;;;;;8.54;100.00;99489.78;340474;29;1790;-75
2023/04/16 00:58:34;;;;;;;9.68;7.00;;;;;;;8.56;100.00;99492.34;341329;29;765;-75
2023/04/16 00:58:47;;;;;;;10.30;7.38;;;;;;;8.47;100.00;99493.44;339633;28;2228;-75
2023/04/16 00:58:59;;;;;;;11.60;7.97;;;;;;;8.40;100.00;99486.69;340056;29;1052;-75